createdAt,value
2017-05-24T00:02:02.000Z,37.524
2017-05-24T00:22:02.000Z,37.702
2017-05-24T00:42:02.000Z,37.75
2017-05-24T00:52:03.000Z,37.779
2017-05-24T01:02:02.000Z,37.853
2017-05-24T01:12:02.000Z,37.838
2017-05-24T01:22:03.000Z,37.889
2017-05-24T01:42:02.000Z,37.882
2017-05-24T02:02:02.000Z,37.919
2017-05-24T02:12:02.000Z,37.906
2017-05-24T02:22:02.000Z,37.835
2017-05-24T02:42:03.000Z,37.918
2017-05-24T03:02:03.000Z,37.967
2017-05-24T03:12:03.000Z,37.963
2017-05-24T03:22:03.000Z,37.917
2017-05-24T03:42:03.000Z,37.935
2017-05-24T04:02:03.000Z,38.007
2017-05-24T04:12:03.000Z,38.005
2017-05-24T04:22:03.000Z,37.981
2017-05-24T04:42:03.000Z,37.901
2017-05-24T05:02:03.000Z,37.889
2017-05-24T05:12:03.000Z,37.999
2017-05-24T05:22:03.000Z,37.976
2017-05-24T05:42:03.000Z,37.787
2017-05-24T06:02:03.000Z,37.361
2017-05-24T06:12:03.000Z,37.212
2017-05-24T06:22:03.000Z,37.084
2017-05-24T06:42:03.000Z,37.463
2017-05-24T07:02:03.000Z,37.377
2017-05-24T07:12:03.000Z,37.475
2017-05-24T07:22:03.000Z,37.314
2017-05-24T07:42:03.000Z,37.536
2017-05-24T08:02:03.000Z,37.352
2017-05-24T08:12:03.000Z,37.354
2017-05-24T08:22:03.000Z,37.227
2017-05-24T08:42:03.000Z,37.181
2017-05-24T09:02:06.000Z,37.325
2017-05-24T09:12:03.000Z,37.176
2017-05-24T09:22:03.000Z,36.954
2017-05-24T09:42:03.000Z,36.895
2017-05-24T10:02:03.000Z,36.866
2017-05-24T10:12:03.000Z,36.577
2017-05-24T10:22:03.000Z,36.666
2017-05-24T10:42:04.000Z,36.506
2017-05-24T11:02:04.000Z,36.208
2017-05-24T11:12:04.000Z,36.407
2017-05-24T11:22:04.000Z,36.522
2017-05-24T11:42:04.000Z,36.417
2017-05-24T12:02:04.000Z,36.53
2017-05-24T12:22:04.000Z,36.187
2017-05-24T12:32:04.000Z,36.136
2017-05-24T12:42:04.000Z,36.408
2017-05-24T13:02:04.000Z,36.967
2017-05-24T13:22:04.000Z,38.362
2017-05-24T13:32:04.000Z,39.288
2017-05-24T13:42:04.000Z,39.08
2017-05-24T14:02:04.000Z,39.866
2017-05-24T14:22:04.000Z,39.005
2017-05-24T14:32:04.000Z,40.314
2017-05-24T14:42:04.000Z,40.376
2017-05-24T15:02:04.000Z,40.078
2017-05-24T15:22:04.000Z,40.632
2017-05-24T15:32:04.000Z,40.26
2017-05-24T15:42:04.000Z,40.235
2017-05-24T16:02:04.000Z,39.852
2017-05-24T16:22:04.000Z,41.52
2017-05-24T16:32:04.000Z,41.708
2017-05-24T16:42:04.000Z,41.953
2017-05-24T17:02:04.000Z,40.771
2017-05-24T17:22:04.000Z,40.947
2017-05-24T17:32:04.000Z,40.848
2017-05-24T17:42:04.000Z,40.763
2017-05-24T18:02:04.000Z,40.738
2017-05-24T18:22:04.000Z,40.822
2017-05-24T18:32:04.000Z,40.96
2017-05-24T18:42:04.000Z,40.927
2017-05-24T19:02:05.000Z,41.064
2017-05-24T19:22:05.000Z,41.156
2017-05-24T19:42:05.000Z,41.314
2017-05-24T19:52:07.000Z,41.388
2017-05-24T20:02:05.000Z,41.485
2017-05-24T20:42:05.000Z,41.692
2017-05-24T20:52:05.000Z,41.733
2017-05-24T21:02:05.000Z,41.731
2017-05-24T21:22:05.000Z,42.031
2017-05-24T21:42:05.000Z,42.537
2017-05-24T21:52:05.000Z,42.59
2017-05-24T22:02:05.000Z,42.764
2017-05-24T22:22:05.000Z,42.816
2017-05-24T22:42:05.000Z,43.082
2017-05-24T22:52:05.000Z,43.012
2017-05-24T23:02:05.000Z,43.052
2017-05-24T23:22:05.000Z,43.142
2017-05-24T23:42:05.000Z,43.255
2017-05-24T23:52:05.000Z,43.328
